createdAt,value
2018-09-14T00:00:58.315Z,1016.81
2018-09-14T00:02:07.999Z,1016.79
2018-09-14T00:03:17.160Z,1016.78
2018-09-14T00:04:27.080Z,1016.78
2018-09-14T00:05:36.756Z,1016.77
2018-09-14T00:06:46.431Z,1016.76
2018-09-14T00:07:55.856Z,1016.78
2018-09-14T00:09:05.554Z,1016.81
2018-09-14T00:10:14.979Z,1016.73
2018-09-14T00:11:24.494Z,1016.76
2018-09-14T00:12:33.954Z,1016.75
2018-09-14T00:13:43.371Z,1016.73
2018-09-14T00:14:53.060Z,1016.76
2018-09-14T00:16:02.525Z,1016.75
2018-09-14T00:17:12.277Z,1016.75
2018-09-14T00:18:21.952Z,1016.74
2018-09-14T00:19:31.648Z,1016.72
2018-09-14T00:20:41.338Z,1016.72
2018-09-14T00:21:50.530Z,1016.69
2018-09-14T00:22:59.438Z,1016.72
2018-09-14T00:24:09.144Z,1016.68
2018-09-14T00:25:18.584Z,1016.7
2018-09-14T00:26:28.030Z,1016.67
2018-09-14T00:27:37.209Z,1016.67
2018-09-14T00:28:46.439Z,1016.71
2018-09-14T00:29:55.598Z,1016.66
2018-09-14T00:31:05.040Z,1016.7
2018-09-14T00:32:14.720Z,1016.67
2018-09-14T00:33:24.126Z,1016.65
2018-09-14T00:34:33.345Z,1016.63
2018-09-14T00:35:42.776Z,1016.63
2018-09-14T00:36:51.683Z,1016.64
2018-09-14T00:38:01.369Z,1016.64
2018-09-14T00:39:11.389Z,1016.62
2018-09-14T00:40:20.547Z,1016.62
2018-09-14T00:41:29.974Z,1016.68
2018-09-14T00:42:39.653Z,1016.69
2018-09-14T00:43:48.886Z,1016.66
2018-09-14T00:44:58.319Z,1016.69
2018-09-14T00:46:08.321Z,1016.68
2018-09-14T00:47:17.743Z,1016.65
2018-09-14T00:48:27.159Z,1016.64
2018-09-14T00:49:36.852Z,1016.63
2018-09-14T00:50:46.026Z,1016.64
2018-09-14T00:51:55.477Z,1016.64
2018-09-14T00:53:04.640Z,1016.64
2018-09-14T00:54:14.063Z,1016.7
2018-09-14T00:55:24.005Z,1016.69
2018-09-14T00:56:33.700Z,1016.68
2018-09-14T00:57:43.120Z,1016.68
2018-09-14T00:58:52.554Z,1016.7
2018-09-14T01:00:01.992Z,1016.66
2018-09-14T01:01:11.672Z,1016.71
2018-09-14T01:02:21.338Z,1016.69
2018-09-14T01:03:30.501Z,1016.68
2018-09-14T01:04:40.169Z,1016.67
2018-09-14T01:05:49.896Z,1016.7
2018-09-14T01:06:58.809Z,1016.69
2018-09-14T01:08:07.976Z,1016.69
2018-09-14T01:09:17.427Z,1016.67
2018-09-14T01:10:26.608Z,1016.67
2018-09-14T01:11:35.779Z,1016.62
2018-09-14T01:12:45.213Z,1016.64
2018-09-14T01:13:54.125Z,1016.59
2018-09-14T01:15:03.310Z,1016.61
2018-09-14T01:16:12.469Z,1016.57
2018-09-14T01:17:21.974Z,1016.58
2018-09-14T01:18:31.249Z,1016.56
2018-09-14T01:19:40.955Z,1016.59
2018-09-14T01:20:50.907Z,1016.58
2018-09-14T01:22:00.115Z,1016.59
2018-09-14T01:23:09.395Z,1016.54
2018-09-14T01:24:18.565Z,1016.56
2018-09-14T01:25:28.247Z,1016.58
2018-09-14T01:26:37.675Z,1016.55
2018-09-14T01:27:46.852Z,1016.58
2018-09-14T01:28:56.271Z,1016.53
2018-09-14T01:30:05.682Z,1016.52
2018-09-14T01:31:15.373Z,1016.54
2018-09-14T01:32:24.277Z,1016.53
2018-09-14T01:33:33.526Z,1016.53
2018-09-14T01:34:42.171Z,1016.54
2018-09-14T01:35:51.604Z,1016.52
2018-09-14T01:37:00.757Z,1016.51
2018-09-14T01:38:10.240Z,1016.52
2018-09-14T01:39:19.230Z,1016.51
2018-09-14T01:40:28.125Z,1016.55
2018-09-14T01:41:37.293Z,1016.55
2018-09-14T01:42:47.229Z,1016.6
2018-09-14T01:43:56.678Z,1016.58
2018-09-14T01:45:06.123Z,1016.61
2018-09-14T01:46:15.346Z,1016.6
2018-09-14T01:47:24.571Z,1016.62
2018-09-14T01:48:34.067Z,1016.56
2018-09-14T01:49:44.026Z,1016.53
2018-09-14T01:50:54.027Z,1016.54
2018-09-14T01:52:03.705Z,1016.54
2018-09-14T01:53:12.359Z,1016.54
2018-09-14T01:54:21.539Z,1016.5
2018-09-14T01:55:31.201Z,1016.55
2018-09-14T01:56:40.134Z,1016.51
2018-09-14T01:57:49.823Z,1016.55
2018-09-14T01:58:58.735Z,1016.52
2018-09-14T02:00:08.161Z,1016.5
2018-09-14T02:01:17.850Z,1016.52
2018-09-14T02:02:27.430Z,1016.52
2018-09-14T02:03:36.595Z,1016.51
2018-09-14T02:04:45.523Z,1016.5
2018-09-14T02:05:55.259Z,1016.49
2018-09-14T02:07:04.415Z,1016.51
2018-09-14T02:08:13.829Z,1016.49
2018-09-14T02:09:23.262Z,1016.48
2018-09-14T02:10:32.447Z,1016.52
2018-09-14T02:11:42.161Z,1016.47
2018-09-14T02:12:51.593Z,1016.51
2018-09-14T02:14:01.012Z,1016.53
2018-09-14T02:15:10.193Z,1016.49
2018-09-14T02:16:18.866Z,1016.51
2018-09-14T02:17:28.066Z,1016.43
2018-09-14T02:18:37.288Z,1016.47
2018-09-14T02:19:46.959Z,1016.47
2018-09-14T02:20:56.388Z,1016.47
2018-09-14T02:22:05.563Z,1016.47
2018-09-14T02:23:14.730Z,1016.47
2018-09-14T02:24:23.915Z,1016.49
2018-09-14T02:25:33.619Z,1016.49
2018-09-14T02:26:43.634Z,1016.46
2018-09-14T02:27:52.807Z,1016.46
2018-09-14T02:29:02.220Z,1016.45
2018-09-14T02:30:11.399Z,1016.42
2018-09-14T02:31:21.528Z,1016.37
2018-09-14T02:32:31.247Z,1016.4
2018-09-14T02:33:40.686Z,1016.39
2018-09-14T02:34:50.376Z,1016.4
2018-09-14T02:36:00.070Z,1016.4
2018-09-14T02:37:10.023Z,1016.4
2018-09-14T02:38:19.455Z,1016.41
2018-09-14T02:39:28.886Z,1016.39
2018-09-14T02:40:38.571Z,1016.42
2018-09-14T02:41:48.001Z,1016.4
2018-09-14T02:42:57.431Z,1016.39
2018-09-14T02:44:06.871Z,1016.38
2018-09-14T02:45:16.294Z,1016.37
2018-09-14T02:46:25.977Z,1016.36
2018-09-14T02:47:35.684Z,1016.38
2018-09-14T02:48:44.597Z,1016.39
2018-09-14T02:49:54.028Z,1016.4
2018-09-14T02:51:03.439Z,1016.36
2018-09-14T02:52:13.144Z,1016.4
2018-09-14T02:53:22.821Z,1016.38
2018-09-14T02:54:31.985Z,1016.39
2018-09-14T02:55:41.418Z,1016.42
2018-09-14T02:56:50.583Z,1016.37
2018-09-14T02:57:59.569Z,1016.43
2018-09-14T03:01:34.352Z,1016.43
2018-09-14T03:02:43.777Z,1016.44
2018-09-14T03:03:53.449Z,1016.44
2018-09-14T03:05:03.404Z,1016.42
2018-09-14T03:06:12.831Z,1016.46
2018-09-14T03:07:22.261Z,1016.43
2018-09-14T03:08:31.933Z,1016.41
2018-09-14T03:09:41.111Z,1016.46
2018-09-14T03:10:51.246Z,1016.42
2018-09-14T03:12:00.669Z,1016.42
2018-09-14T03:13:09.838Z,1016.41
2018-09-14T03:14:19.273Z,1016.39
2018-09-14T03:15:28.458Z,1016.4
2018-09-14T03:16:38.144Z,1016.37
2018-09-14T03:17:47.569Z,1016.42
2018-09-14T03:18:57.262Z,1016.4
2018-09-14T03:20:06.724Z,1016.39
2018-09-14T03:21:16.154Z,1016.39
2018-09-14T03:22:25.588Z,1016.43
2018-09-14T03:23:35.282Z,1016.39
2018-09-14T03:24:44.722Z,1016.37
2018-09-14T03:25:54.416Z,1016.36
2018-09-14T03:27:03.563Z,1016.34
2018-09-14T03:28:12.769Z,1016.38
2018-09-14T03:29:22.209Z,1016.36
2018-09-14T03:30:31.882Z,1016.4
2018-09-14T03:31:41.314Z,1016.37
2018-09-14T03:32:51.201Z,1016.43
2018-09-14T03:34:00.635Z,1016.41
2018-09-14T03:35:10.314Z,1016.43
2018-09-14T03:36:19.738Z,1016.38
2018-09-14T03:37:28.694Z,1016.37
2018-09-14T03:38:38.122Z,1016.33
2018-09-14T03:39:47.316Z,1016.34
2018-09-14T03:40:56.755Z,1016.36
2018-09-14T03:42:05.656Z,1016.33
2018-09-14T03:43:15.073Z,1016.37
2018-09-14T03:44:24.756Z,1016.38
2018-09-14T03:45:34.172Z,1016.43
2018-09-14T03:46:44.118Z,1016.45
2018-09-14T03:47:53.553Z,1016.4
2018-09-14T03:49:03.240Z,1016.4
2018-09-14T03:50:12.414Z,1016.36
2018-09-14T03:51:22.154Z,1016.32
2018-09-14T03:52:32.096Z,1016.32
2018-09-14T03:53:41.276Z,1016.3
2018-09-14T03:54:50.703Z,1016.3
2018-09-14T03:56:00.380Z,1016.35
2018-09-14T03:57:10.395Z,1016.3
2018-09-14T03:58:19.640Z,1016.33
2018-09-14T03:59:29.085Z,1016.31
2018-09-14T04:00:38.517Z,1016.29
2018-09-14T04:01:48.258Z,1016.29
2018-09-14T04:02:57.687Z,1016.31
2018-09-14T04:04:07.642Z,1016.29
2018-09-14T04:05:16.290Z,1016.37
2018-09-14T04:06:25.754Z,1016.36
2018-09-14T04:07:34.949Z,1016.32
2018-09-14T04:08:44.839Z,1016.36
2018-09-14T04:09:54.790Z,1016.35
2018-09-14T04:11:03.964Z,1016.36
2018-09-14T04:12:12.870Z,1016.38
2018-09-14T04:13:22.300Z,1016.35
2018-09-14T04:14:32.026Z,1016.39
2018-09-14T04:15:41.461Z,1016.36
2018-09-14T04:16:50.938Z,1016.34
2018-09-14T04:18:00.571Z,1016.42
2018-09-14T04:19:10.312Z,1016.38
2018-09-14T04:20:20.011Z,1016.42
2018-09-14T04:21:29.466Z,1016.39
2018-09-14T04:22:39.160Z,1016.41
2018-09-14T04:23:48.110Z,1016.36
2018-09-14T04:24:57.536Z,1016.37
2018-09-14T04:26:06.974Z,1016.43
2018-09-14T04:27:16.427Z,1016.4
2018-09-14T04:28:26.196Z,1016.39
2018-09-14T04:29:35.864Z,1016.41
2018-09-14T04:30:45.054Z,1016.44
2018-09-14T04:31:54.675Z,1016.43
2018-09-14T04:33:04.378Z,1016.43
2018-09-14T04:34:14.252Z,1016.4
2018-09-14T04:35:23.687Z,1016.38
2018-09-14T04:36:33.117Z,1016.38
2018-09-14T04:37:42.810Z,1016.39
2018-09-14T04:38:52.751Z,1016.32
2018-09-14T04:40:01.950Z,1016.29
2018-09-14T04:41:10.648Z,1016.24
2018-09-14T04:42:20.596Z,1016.29
2018-09-14T04:43:30.560Z,1016.29
2018-09-14T04:44:40.004Z,1016.28
2018-09-14T04:45:49.168Z,1016.27
2018-09-14T04:46:58.675Z,1016.3
2018-09-14T04:48:08.109Z,1016.26
2018-09-14T04:49:18.022Z,1016.28
2018-09-14T04:50:27.714Z,1016.3
2018-09-14T04:51:36.903Z,1016.31
2018-09-14T04:52:46.379Z,1016.3
2018-09-14T04:53:55.804Z,1016.27
2018-09-14T04:55:05.581Z,1016.33
2018-09-14T04:56:15.058Z,1016.32
2018-09-14T04:57:24.531Z,1016.31
2018-09-14T04:58:34.796Z,1016.34
2018-09-14T04:59:44.526Z,1016.35
2018-09-14T05:00:54.491Z,1016.36
2018-09-14T05:02:04.201Z,1016.38
2018-09-14T05:03:13.993Z,1016.35
2018-09-14T05:04:24.247Z,1016.35
2018-09-14T05:05:33.690Z,1016.34
2018-09-14T05:06:43.118Z,1016.39
2018-09-14T05:07:52.570Z,1016.36
2018-09-14T05:09:01.473Z,1016.39
2018-09-14T05:10:10.904Z,1016.34
2018-09-14T05:11:20.322Z,1016.35
2018-09-14T05:12:29.755Z,1016.26
2018-09-14T05:13:38.921Z,1016.3
2018-09-14T05:14:48.088Z,1016.3
2018-09-14T05:15:57.262Z,1016.29
2018-09-14T05:17:06.441Z,1016.32
2018-09-14T05:18:15.891Z,1016.34
2018-09-14T05:19:25.338Z,1016.33
2018-09-14T05:20:34.762Z,1016.33
2018-09-14T05:21:43.934Z,1016.3
2018-09-14T05:22:53.080Z,1016.34
2018-09-14T05:24:02.294Z,1016.34
2018-09-14T05:25:11.959Z,1016.31
2018-09-14T05:26:21.413Z,1016.34
2018-09-14T05:27:31.166Z,1016.3
2018-09-14T05:28:40.351Z,1016.37
2018-09-14T05:29:49.794Z,1016.39
2018-09-14T05:30:58.996Z,1016.39
2018-09-14T05:32:08.670Z,1016.41
2018-09-14T05:33:18.240Z,1016.43
2018-09-14T05:34:27.689Z,1016.41
2018-09-14T05:35:36.887Z,1016.42
2018-09-14T05:36:46.596Z,1016.47
2018-09-14T05:37:56.465Z,1016.43
2018-09-14T05:39:06.456Z,1016.48
2018-09-14T05:40:15.629Z,1016.51
2018-09-14T05:41:25.097Z,1016.48
2018-09-14T05:42:34.279Z,1016.48
2018-09-14T05:43:44.232Z,1016.55
2018-09-14T05:44:53.443Z,1016.51
2018-09-14T05:46:02.885Z,1016.54
2018-09-14T05:47:12.583Z,1016.55
2018-09-14T05:48:22.099Z,1016.57
2018-09-14T05:49:31.777Z,1016.57
2018-09-14T05:50:41.489Z,1016.61
2018-09-14T05:51:50.915Z,1016.65
2018-09-14T05:53:00.132Z,1016.65
2018-09-14T05:54:09.044Z,1016.68
2018-09-14T05:55:19.050Z,1016.67
2018-09-14T05:56:28.762Z,1016.65
2018-09-14T05:57:38.899Z,1016.68
2018-09-14T05:58:48.337Z,1016.69
2018-09-14T05:59:57.760Z,1016.69
2018-09-14T06:01:06.690Z,1016.7
2018-09-14T06:02:16.125Z,1016.68
2018-09-14T06:03:25.549Z,1016.73
2018-09-14T06:04:34.974Z,1016.71
2018-09-14T06:05:44.403Z,1016.7
2018-09-14T06:06:54.353Z,1016.7
2018-09-14T06:08:03.544Z,1016.7
2018-09-14T06:09:12.459Z,1016.68
2018-09-14T06:10:21.890Z,1016.63
2018-09-14T06:11:31.603Z,1016.65
2018-09-14T06:12:41.046Z,1016.65
2018-09-14T06:13:50.219Z,1016.58
2018-09-14T06:15:00.394Z,1016.64
2018-09-14T06:16:10.340Z,1016.63
2018-09-14T06:17:19.508Z,1016.61
2018-09-14T06:18:28.931Z,1016.63
2018-09-14T06:19:38.358Z,1016.64
2018-09-14T06:20:47.533Z,1016.62
2018-09-14T06:21:56.716Z,1016.66
2018-09-14T06:23:06.235Z,1016.64
2018-09-14T06:24:16.137Z,1016.65
2018-09-14T06:25:25.578Z,1016.65
2018-09-14T06:26:35.047Z,1016.67
2018-09-14T06:27:44.483Z,1016.69
2018-09-14T06:28:54.167Z,1016.73
2018-09-14T06:30:03.870Z,1016.7
2018-09-14T06:31:13.613Z,1016.73
2018-09-14T06:32:22.772Z,1016.68
2018-09-14T06:33:32.465Z,1016.75
2018-09-14T06:34:41.909Z,1016.74
2018-09-14T06:35:50.608Z,1016.77
2018-09-14T06:36:59.772Z,1016.81
2018-09-14T06:38:08.846Z,1016.8
2018-09-14T06:39:18.398Z,1016.81
2018-09-14T06:40:27.808Z,1016.84
2018-09-14T06:41:36.972Z,1016.89
2018-09-14T06:42:46.455Z,1016.87
2018-09-14T06:43:55.962Z,1016.85
2018-09-14T06:45:05.472Z,1016.85
2018-09-14T06:46:15.036Z,1016.8
2018-09-14T06:47:24.746Z,1016.8
2018-09-14T06:48:33.917Z,1016.74
2018-09-14T06:49:43.124Z,1016.71
2018-09-14T06:50:52.286Z,1016.74
2018-09-14T06:52:01.783Z,1016.78
2018-09-14T06:53:11.502Z,1016.77
2018-09-14T06:54:21.145Z,1016.78
2018-09-14T06:55:30.645Z,1016.84
2018-09-14T06:56:40.633Z,1016.78
2018-09-14T06:57:50.352Z,1016.83
2018-09-14T06:59:00.080Z,1016.81
2018-09-14T07:00:09.367Z,1016.79
2018-09-14T07:01:20.285Z,1016.81
2018-09-14T07:02:29.196Z,1016.81
2018-09-14T07:03:38.895Z,1016.81
2018-09-14T07:04:48.309Z,1016.8
2018-09-14T07:05:57.791Z,1016.86
2018-09-14T07:07:06.951Z,1016.81
2018-09-14T07:08:16.152Z,1016.8
2018-09-14T07:09:25.323Z,1016.84
2018-09-14T07:10:34.490Z,1016.82
2018-09-14T07:11:44.192Z,1016.85
2018-09-14T07:12:53.867Z,1016.84
2018-09-14T07:14:03.647Z,1016.79
2018-09-14T07:15:13.083Z,1016.78
2018-09-14T07:16:22.287Z,1016.77
2018-09-14T07:17:31.463Z,1016.85
2018-09-14T07:18:41.163Z,1016.9
2018-09-14T07:19:50.594Z,1016.92
2018-09-14T07:20:59.820Z,1016.91
2018-09-14T07:22:09.371Z,1016.89
2018-09-14T07:23:19.739Z,1016.91
2018-09-14T07:24:28.768Z,1016.92
2018-09-14T07:25:38.134Z,1016.95
2018-09-14T07:26:48.168Z,1016.99
2018-09-14T07:27:57.938Z,1016.98
2018-09-14T07:29:07.519Z,1017.01
2018-09-14T07:30:16.944Z,1017.01
2018-09-14T07:31:26.869Z,1017.04
2018-09-14T07:32:36.132Z,1017.03
2018-09-14T07:33:45.880Z,1017.02
2018-09-14T07:34:55.310Z,1017.05
2018-09-14T07:36:04.996Z,1017.07
2018-09-14T07:37:14.955Z,1017.07
2018-09-14T07:38:23.882Z,1017.1
2018-09-14T07:39:33.096Z,1017.07
2018-09-14T07:40:42.013Z,1017.06
2018-09-14T07:41:51.429Z,1017.1
2018-09-14T07:43:01.120Z,1017.13
2018-09-14T07:44:10.557Z,1017.09
2018-09-14T07:45:19.741Z,1017.11
2018-09-14T07:46:29.435Z,1017.1
2018-09-14T07:47:38.354Z,1017.11
2018-09-14T07:48:48.334Z,1017.1
2018-09-14T07:49:57.764Z,1017.1
2018-09-14T07:51:07.215Z,1017.09
2018-09-14T07:52:16.690Z,1017.05
2018-09-14T07:53:26.143Z,1017.1
2018-09-14T07:54:35.574Z,1017.06
2018-09-14T07:55:45.032Z,1017.11
2018-09-14T07:56:54.951Z,1017.14
2018-09-14T07:58:04.108Z,1017.12
2018-09-14T07:59:13.279Z,1017.15
2018-09-14T08:00:22.451Z,1017.16
2018-09-14T08:01:31.637Z,1017.18
2018-09-14T08:02:41.333Z,1017.18
2018-09-14T08:03:50.776Z,1017.18
2018-09-14T08:05:00.455Z,1017.17
2018-09-14T08:06:09.663Z,1017.16
2018-09-14T08:07:19.499Z,1017.17
2018-09-14T08:08:28.953Z,1017.17
2018-09-14T08:09:38.117Z,1017.18
2018-09-14T08:10:47.665Z,1017.16
2018-09-14T08:11:56.968Z,1017.12
2018-09-14T08:13:06.747Z,1017.13
2018-09-14T08:14:16.911Z,1017.11
2018-09-14T08:15:26.636Z,1017.17
2018-09-14T08:16:36.626Z,1017.13
2018-09-14T08:17:47.031Z,1017.19
2018-09-14T08:18:56.483Z,1017.11
2018-09-14T08:20:06.252Z,1017.15
2018-09-14T08:21:16.370Z,1017.14
2018-09-14T08:22:27.051Z,1017.15
2018-09-14T08:23:36.310Z,1017.16
2018-09-14T08:24:45.843Z,1017.17
2018-09-14T08:25:55.280Z,1017.12
2018-09-14T08:27:05.036Z,1017.15
2018-09-14T08:28:15.066Z,1017.16
2018-09-14T08:29:24.000Z,1017.19
2018-09-14T08:30:33.163Z,1017.15
2018-09-14T08:31:42.631Z,1017.18
2018-09-14T08:32:51.821Z,1017.15
2018-09-14T08:34:01.313Z,1017.12
2018-09-14T08:35:11.289Z,1017.17
2018-09-14T08:36:20.972Z,1017.17
2018-09-14T08:37:30.472Z,1017.2
2018-09-14T08:38:39.902Z,1017.2
2018-09-14T08:39:49.075Z,1017.22
2018-09-14T08:40:58.247Z,1017.24
2018-09-14T08:42:07.671Z,1017.23
2018-09-14T08:43:17.101Z,1017.24
2018-09-14T08:44:26.321Z,1017.22
2018-09-14T08:45:36.008Z,1017.22
2018-09-14T08:46:44.931Z,1017.26
2018-09-14T08:47:54.014Z,1017.28
2018-09-14T08:49:04.080Z,1017.29
2018-09-14T08:50:13.545Z,1017.32
2018-09-14T08:51:22.995Z,1017.3
2018-09-14T08:52:32.003Z,1017.32
2018-09-14T08:53:41.837Z,1017.34
2018-09-14T08:54:51.618Z,1017.36
2018-09-14T08:56:01.108Z,1017.4
2018-09-14T08:57:10.039Z,1017.36
2018-09-14T08:58:18.787Z,1017.31
2018-09-14T08:59:27.713Z,1017.32
2018-09-14T09:00:36.951Z,1017.31
2018-09-14T09:01:46.386Z,1017.35
2018-09-14T09:02:55.579Z,1017.35
2018-09-14T09:04:05.346Z,1017.29
2018-09-14T09:05:14.283Z,1017.31
2018-09-14T09:06:23.477Z,1017.3
2018-09-14T09:07:32.889Z,1017.3
2018-09-14T09:08:42.584Z,1017.31
2018-09-14T09:09:52.278Z,1017.28
2018-09-14T09:11:01.439Z,1017.32
2018-09-14T09:12:10.861Z,1017.3
2018-09-14T09:13:20.339Z,1017.29
2018-09-14T09:14:30.076Z,1017.27
2018-09-14T09:15:39.797Z,1017.29
2018-09-14T09:16:49.483Z,1017.3
2018-09-14T09:17:58.680Z,1017.23
2018-09-14T09:19:08.135Z,1017.27
2018-09-14T09:20:17.985Z,1017.27
2018-09-14T09:21:27.745Z,1017.26
2018-09-14T09:22:37.165Z,1017.29
2018-09-14T09:23:46.863Z,1017.28
2018-09-14T09:24:55.514Z,1017.24
2018-09-14T09:26:04.697Z,1017.24
2018-09-14T09:27:13.920Z,1017.23
2018-09-14T09:28:23.364Z,1017.27
2018-09-14T09:29:33.164Z,1017.26
2018-09-14T09:30:42.240Z,1017.25
2018-09-14T09:31:51.513Z,1017.24
2018-09-14T09:33:01.015Z,1017.22
2018-09-14T09:34:10.195Z,1017.23
2018-09-14T09:35:19.703Z,1017.23
2018-09-14T09:36:29.136Z,1017.2
2018-09-14T09:37:38.294Z,1017.21
2018-09-14T09:38:47.979Z,1017.21
2018-09-14T09:39:57.658Z,1017.18
2018-09-14T09:41:06.831Z,1017.18
2018-09-14T09:42:16.660Z,1017.16
2018-09-14T09:43:26.263Z,1017.19
2018-09-14T09:44:37.487Z,1017.13
2018-09-14T09:45:46.672Z,1017.17
2018-09-14T09:46:56.305Z,1017.16
2018-09-14T09:48:05.994Z,1017.16
2018-09-14T09:49:15.193Z,1017.12
2018-09-14T09:50:24.609Z,1017.12
2018-09-14T09:51:34.568Z,1017.08
2018-09-14T09:52:43.987Z,1017.12
2018-09-14T09:53:53.175Z,1017.09
2018-09-14T09:55:02.632Z,1017.07
2018-09-14T09:56:12.318Z,1017.07
2018-09-14T09:57:21.255Z,1017.04
2018-09-14T09:58:30.706Z,1017.02
2018-09-14T09:59:40.141Z,1017.05
2018-09-14T10:00:49.644Z,1017.03
2018-09-14T10:01:58.815Z,1017.05
2018-09-14T10:03:08.249Z,1017.02
2018-09-14T10:04:17.686Z,1017.04
2018-09-14T10:05:26.608Z,1017.01
2018-09-14T10:06:35.793Z,1017.02
2018-09-14T10:07:45.738Z,1017.04
2018-09-14T10:08:54.931Z,1017.02
2018-09-14T10:10:04.658Z,1017.03
2018-09-14T10:11:14.094Z,1017.05
2018-09-14T10:12:23.276Z,1017.07
2018-09-14T10:13:32.465Z,1017.04
2018-09-14T10:14:41.831Z,1017.04
2018-09-14T10:15:51.265Z,1017.01
2018-09-14T10:17:00.966Z,1017.04
2018-09-14T10:18:10.424Z,1016.98
2018-09-14T10:19:19.586Z,1016.97
2018-09-14T10:20:28.854Z,1016.95
2018-09-14T10:21:38.628Z,1016.94
2018-09-14T10:22:48.727Z,1016.93
2018-09-14T10:23:57.642Z,1016.93
2018-09-14T10:25:07.334Z,1016.89
2018-09-14T10:26:17.040Z,1016.92
2018-09-14T10:27:26.811Z,1016.88
2018-09-14T10:28:35.737Z,1016.87
2018-09-14T10:29:45.205Z,1016.88
2018-09-14T10:30:54.368Z,1016.85
2018-09-14T10:32:03.802Z,1016.87
2018-09-14T10:33:13.540Z,1016.88
2018-09-14T10:34:22.957Z,1016.81
2018-09-14T10:35:32.657Z,1016.8
2018-09-14T10:36:42.603Z,1016.81
2018-09-14T10:37:52.305Z,1016.75
2018-09-14T10:39:02.045Z,1016.78
2018-09-14T10:40:11.258Z,1016.71
2018-09-14T10:41:20.409Z,1016.71
2018-09-14T10:42:29.578Z,1016.66
2018-09-14T10:43:38.775Z,1016.62
2018-09-14T10:44:47.952Z,1016.61
2018-09-14T10:45:57.178Z,1016.62
2018-09-14T10:47:06.615Z,1016.62
2018-09-14T10:48:15.275Z,1016.63
2018-09-14T10:49:24.446Z,1016.6
2018-09-14T10:50:34.139Z,1016.56
2018-09-14T10:51:43.293Z,1016.53
2018-09-14T10:52:52.455Z,1016.54
2018-09-14T10:54:01.916Z,1016.52
2018-09-14T10:55:11.188Z,1016.5
2018-09-14T10:56:20.872Z,1016.5
2018-09-14T10:57:30.826Z,1016.52
2018-09-14T10:58:40.270Z,1016.47
2018-09-14T10:59:49.973Z,1016.55
2018-09-14T11:00:59.927Z,1016.55
2018-09-14T11:02:09.599Z,1016.55
2018-09-14T11:03:19.016Z,1016.54
2018-09-14T11:04:27.701Z,1016.57
2018-09-14T11:05:37.044Z,1016.54
2018-09-14T11:06:46.604Z,1016.59
2018-09-14T11:07:56.783Z,1016.58
2018-09-14T11:09:06.575Z,1016.6
2018-09-14T11:10:16.254Z,1016.6
2018-09-14T11:11:25.676Z,1016.55
2018-09-14T11:12:35.157Z,1016.58
2018-09-14T11:13:45.420Z,1016.5
2018-09-14T11:14:54.844Z,1016.49
2018-09-14T11:16:04.557Z,1016.48
2018-09-14T11:17:13.754Z,1016.49
2018-09-14T11:18:23.693Z,1016.49
2018-09-14T11:19:33.223Z,1016.44
2018-09-14T11:20:42.493Z,1016.46
2018-09-14T11:21:51.605Z,1016.41
2018-09-14T11:23:01.282Z,1016.44
2018-09-14T11:24:10.457Z,1016.45
2018-09-14T11:25:19.714Z,1016.44
2018-09-14T11:26:29.619Z,1016.41
2018-09-14T11:27:39.112Z,1016.42
2018-09-14T11:28:48.665Z,1016.45
2018-09-14T11:29:57.594Z,1016.42
2018-09-14T11:31:07.270Z,1016.43
2018-09-14T11:32:17.259Z,1016.46
2018-09-14T11:33:27.344Z,1016.43
2018-09-14T11:34:36.535Z,1016.43
2018-09-14T11:35:45.972Z,1016.45
2018-09-14T11:36:54.877Z,1016.38
2018-09-14T11:38:04.338Z,1016.44
2018-09-14T11:39:13.995Z,1016.38
2018-09-14T11:40:23.415Z,1016.37
2018-09-14T11:41:33.444Z,1016.33
2018-09-14T11:42:42.556Z,1016.33
2018-09-14T11:43:51.735Z,1016.3
2018-09-14T11:45:01.487Z,1016.3
2018-09-14T11:46:11.735Z,1016.29
2018-09-14T11:47:22.210Z,1016.31
2018-09-14T11:48:31.893Z,1016.25
2018-09-14T11:49:41.319Z,1016.26
2018-09-14T11:50:51.024Z,1016.28
2018-09-14T11:51:59.974Z,1016.27
2018-09-14T11:53:08.892Z,1016.24
2018-09-14T11:54:18.202Z,1016.21
2018-09-14T11:55:28.372Z,1016.25
2018-09-14T11:56:37.877Z,1016.23
2018-09-14T11:57:47.142Z,1016.19
2018-09-14T11:58:56.589Z,1016.16
2018-09-14T12:00:06.303Z,1016.19
2018-09-14T12:01:16.029Z,1016.11
2018-09-14T12:02:26.491Z,1016.14
2018-09-14T12:03:36.009Z,1016.06
2018-09-14T12:04:45.504Z,1016.08
2018-09-14T12:05:54.731Z,1016.05
2018-09-14T12:07:04.182Z,1016.04
2018-09-14T12:08:14.178Z,1016.02
2018-09-14T12:09:23.721Z,1016.02
2018-09-14T12:10:32.685Z,1015.99
2018-09-14T12:11:42.133Z,1016.02
2018-09-14T12:12:51.094Z,1016.01
2018-09-14T12:14:00.606Z,1016
2018-09-14T12:15:10.006Z,1016
2018-09-14T12:16:19.293Z,1015.98
2018-09-14T12:17:28.800Z,1015.96
2018-09-14T12:18:38.626Z,1015.97
2018-09-14T12:19:48.052Z,1015.96
2018-09-14T12:20:57.048Z,1015.93
2018-09-14T12:22:06.545Z,1015.9
2018-09-14T12:23:16.505Z,1015.88
2018-09-14T12:24:26.216Z,1015.9
2018-09-14T12:25:35.476Z,1015.87
2018-09-14T12:26:44.970Z,1015.87
2018-09-14T12:27:54.439Z,1015.84
2018-09-14T12:29:04.436Z,1015.82
2018-09-14T12:30:13.371Z,1015.83
2018-09-14T12:31:22.847Z,1015.79
2018-09-14T12:32:32.392Z,1015.77
2018-09-14T12:33:41.570Z,1015.81
2018-09-14T12:34:51.521Z,1015.77
2018-09-14T12:36:00.466Z,1015.73
2018-09-14T12:37:10.179Z,1015.71
2018-09-14T12:38:19.929Z,1015.71
2018-09-14T12:39:29.179Z,1015.7
2018-09-14T12:40:38.642Z,1015.67
2018-09-14T12:41:48.366Z,1015.67
2018-09-14T12:42:58.037Z,1015.66
2018-09-14T12:44:07.796Z,1015.64
2018-09-14T12:45:17.279Z,1015.69
2018-09-14T12:46:26.743Z,1015.68
2018-09-14T12:47:35.725Z,1015.68
2018-09-14T12:48:45.603Z,1015.7
2018-09-14T12:49:54.845Z,1015.68
2018-09-14T12:51:04.028Z,1015.68
2018-09-14T12:52:13.772Z,1015.68
2018-09-14T12:53:22.996Z,1015.68
2018-09-14T12:54:32.368Z,1015.64
2018-09-14T12:55:41.329Z,1015.67
2018-09-14T12:56:51.045Z,1015.65
2018-09-14T12:58:00.510Z,1015.65
2018-09-14T12:59:10.567Z,1015.62
2018-09-14T13:00:19.532Z,1015.62
2018-09-14T13:01:29.310Z,1015.59
2018-09-14T13:02:38.430Z,1015.52
2018-09-14T13:03:47.866Z,1015.54
2018-09-14T13:04:57.105Z,1015.5
2018-09-14T13:06:06.867Z,1015.54
2018-09-14T13:07:16.323Z,1015.5
2018-09-14T13:08:26.022Z,1015.51
2018-09-14T13:09:35.543Z,1015.49
2018-09-14T13:10:44.522Z,1015.51
2018-09-14T13:11:53.897Z,1015.56
2018-09-14T13:13:03.411Z,1015.51
2018-09-14T13:14:13.425Z,1015.45
2018-09-14T13:15:22.921Z,1015.46
2018-09-14T13:16:32.742Z,1015.42
2018-09-14T13:17:42.287Z,1015.45
2018-09-14T13:18:51.746Z,1015.48
2018-09-14T13:20:02.338Z,1015.49
2018-09-14T13:21:12.055Z,1015.51
2018-09-14T13:22:21.555Z,1015.55
2018-09-14T13:23:31.064Z,1015.51
2018-09-14T13:24:40.528Z,1015.5
2018-09-14T13:25:49.755Z,1015.46
2018-09-14T13:26:59.208Z,1015.47
2018-09-14T13:28:08.418Z,1015.53
2018-09-14T13:29:18.418Z,1015.55
2018-09-14T13:30:27.901Z,1015.52
2018-09-14T13:31:38.075Z,1015.52
2018-09-14T13:32:47.085Z,1015.52
2018-09-14T13:33:56.598Z,1015.51
2018-09-14T13:35:06.254Z,1015.46
2018-09-14T13:36:15.418Z,1015.49
2018-09-14T13:37:24.922Z,1015.4
2018-09-14T13:38:34.357Z,1015.4
2018-09-14T13:39:43.780Z,1015.44
2018-09-14T13:40:53.452Z,1015.43
2018-09-14T13:42:02.948Z,1015.43
2018-09-14T13:43:12.652Z,1015.4
2018-09-14T13:44:22.386Z,1015.47
2018-09-14T13:45:32.078Z,1015.43
2018-09-14T13:46:41.764Z,1015.42
2018-09-14T13:47:51.451Z,1015.42
2018-09-14T13:49:00.881Z,1015.44
2018-09-14T13:50:10.149Z,1015.37
2018-09-14T13:51:19.594Z,1015.4
2018-09-14T13:52:29.023Z,1015.38
2018-09-14T13:53:38.191Z,1015.39
2018-09-14T13:54:48.115Z,1015.38
2018-09-14T13:55:57.032Z,1015.39
2018-09-14T13:57:06.450Z,1015.37
2018-09-14T13:58:15.382Z,1015.42
2018-09-14T13:59:24.298Z,1015.38
2018-09-14T14:00:33.803Z,1015.34
2018-09-14T14:01:43.349Z,1015.34
2018-09-14T14:02:53.048Z,1015.34
2018-09-14T14:04:02.502Z,1015.33
2018-09-14T14:05:11.795Z,1015.36
2018-09-14T14:06:20.717Z,1015.37